Time,TemperatureF,DewpointF,PressureIn,WindDirection,WindDirectionDegrees,WindSpeedMPH,WindSpeedGustMPH,Humidity,HourlyPrecipIn,Conditions,Clouds,dailyrainin,SolarRadiationWatts/m^2,SoftwareType,DateUTC
2013-02-18 00:00:00,39.3,36.6,29.93,North,-999,0.0,0.0,90,0.00,,,-99.99,0,WeatherLink 5.7,2013-02-18 08:00:00,
2013-02-18 00:01:00,39.9,36.1,29.92,NW,325,0.0,0.0,86,0.00,,,0.00,,Wunderground v.1.13,2013-02-18 08:01:00,
2013-02-18 00:07:00,39.8,36.2,29.92,NW,326,0.0,0.0,87,0.00,,,0.00,,Wunderground v.1.13,2013-02-18 08:07:00,
2013-02-18 00:15:00,41.6,40.0,29.93,NW,315,0.0,3.0,94,0.00,,,-99.99,0,WeatherLink 5.7,2013-02-18 08:15:00,
2013-02-18 00:17:00,39.5,36.0,29.92,NW,325,0.0,0.0,87,0.00,,,0.00,,Wunderground v.1.13,2013-02-18 08:17:00,
2013-02-18 00:26:00,39.5,36.2,29.92,NW,325,0.0,0.0,88,0.00,,,0.00,,Wunderground v.1.13,2013-02-18 08:26:00,
2013-02-18 00:30:00,43.9,42.3,29.92,NW,315,1.0,3.0,94,0.00,,,-99.99,0,WeatherLink 5.7,2013-02-18 08:30:00,
2013-02-18 00:32:00,39.5,36.2,29.92,NW,325,0.0,0.0,88,0.00,,,0.00,,Wunderground v.1.13,2013-02-18 08:32:00,
2013-02-18 00:42:00,39.2,35.9,29.92,NW,325,0.0,0.0,88,0.00,,,0.00,,Wunderground v.1.13,2013-02-18 08:42:00,
2013-02-18 00:45:00,44.3,42.1,29.92,NNW,337,0.0,5.0,92,0.00,,,-99.99,0,WeatherLink 5.7,2013-02-18 08:45:00,
2013-02-18 00:51:00,39.2,36.2,29.92,NW,325,0.0,0.0,89,0.00,,,0.00,,Wunderground v.1.13,2013-02-18 08:51:00,
2013-02-18 01:00:00,44.9,42.7,29.92,NW,315,1.0,5.0,92,0.00,,,-99.99,0,WeatherLink 5.7,2013-02-18 09:00:00,
2013-02-18 01:02:00,39.5,37.1,29.93,NW,325,0.0,0.0,91,0.00,,,0.00,,Wunderground v.1.13,2013-02-18 09:02:00,
2013-02-18 01:07:00,39.9,37.8,29.93,NW,325,0.0,0.0,92,0.00,,,0.00,,Wunderground v.1.13,2013-02-18 09:07:00,
2013-02-18 01:15:00,44.8,42.6,29.92,NW,315,0.0,4.0,92,0.00,,,-99.99,0,WeatherLink 5.7,2013-02-18 09:15:00,
2013-02-18 01:17:00,41.8,40.2,29.93,NNW,341,0.0,0.0,94,0.00,,,0.00,,Wunderground v.1.13,2013-02-18 09:17:00,
2013-02-18 01:22:00,42.6,41.0,29.93,NNW,338,0.0,2.0,94,0.00,,,0.00,,Wunderground v.1.13,2013-02-18 09:22:00,
2013-02-18 01:26:00,43.5,41.9,29.93,NW,304,1.0,1.0,94,0.00,,,0.00,,Wunderground v.1.13,2013-02-18 09:26:00,
2013-02-18 01:30:00,44.9,42.7,29.91,NW,315,1.0,5.0,92,0.00,,,-99.99,0,WeatherLink 5.7,2013-02-18 09:30:00,
2013-02-18 01:36:00,44.2,42.3,29.92,NNW,342,0.0,0.0,93,0.00,,,0.00,,Wunderground v.1.13,2013-02-18 09:36:00,
2013-02-18 01:41:00,44.3,42.1,29.92,NNW,342,0.0,0.0,92,0.00,,,0.00,,Wunderground v.1.13,2013-02-18 09:41:00,
2013-02-18 01:45:00,45.2,43.0,29.91,East,90,1.0,3.0,92,0.00,,,-99.99,0,WeatherLink 5.7,2013-02-18 09:45:00,
2013-02-18 01:47:00,44.5,42.6,29.92,WNW,294,0.0,0.0,93,0.00,,,0.00,,Wunderground v.1.13,2013-02-18 09:47:00,
2013-02-18 01:52:00,44.6,42.7,29.92,WNW,300,1.0,4.0,93,0.00,,,0.00,,Wunderground v.1.13,2013-02-18 09:52:00,
2013-02-18 02:00:00,45.5,43.3,29.91,NNW,337,1.0,6.0,92,0.00,,,-99.99,0,WeatherLink 5.7,2013-02-18 10:00:00,
2013-02-18 02:02:00,44.9,42.7,29.92,NW,315,1.0,1.0,92,0.00,,,0.00,,Wunderground v.1.13,2013-02-18 10:02:00,
2013-02-18 02:12:00,44.8,42.6,29.92,NW,316,0.0,0.0,92,0.00,,,0.00,,Wunderground v.1.13,2013-02-18 10:12:00,
2013-02-18 02:15:00,45.5,43.3,29.90,East,90,0.0,2.0,92,0.00,,,-99.99,0,WeatherLink 5.7,2013-02-18 10:15:00,
2013-02-18 02:22:00,44.9,42.7,29.91,NW,306,1.0,1.0,92,0.00,,,0.00,,Wunderground v.1.13,2013-02-18 10:22:00,
2013-02-18 02:27:00,44.9,42.7,29.91,West,280,1.0,1.0,92,0.00,,,0.00,,Wunderground v.1.13,2013-02-18 10:27:00,
2013-02-18 02:30:00,45.5,43.0,29.90,East,90,0.0,1.0,91,0.00,,,-99.99,0,WeatherLink 5.7,2013-02-18 10:30:00,
2013-02-18 02:36:00,45.2,43.0,29.91,East,81,1.0,1.0,92,0.00,,,0.00,,Wunderground v.1.13,2013-02-18 10:36:00,
2013-02-18 02:42:00,45.2,43.0,29.91,ENE,69,1.0,1.0,92,0.00,,,0.00,,Wunderground v.1.13,2013-02-18 10:42:00,
2013-02-18 02:45:00,45.7,43.2,29.90,East,90,0.0,6.0,91,0.00,,,-99.99,0,WeatherLink 5.7,2013-02-18 10:45:00,
2013-02-18 02:47:00,45.2,43.0,29.91,West,273,0.0,1.0,92,0.00,,,0.00,,Wunderground v.1.13,2013-02-18 10:47:00,
2013-02-18 02:57:00,45.4,43.2,29.91,NNE,28,1.0,2.0,92,0.00,,,0.00,,Wunderground v.1.13,2013-02-18 10:57:00,
2013-02-18 03:00:00,45.7,43.2,29.89,North,0,0.0,5.0,91,0.00,,,-99.99,0,WeatherLink 5.7,2013-02-18 11:00:00,
2013-02-18 03:02:00,45.5,43.3,29.91,North,360,0.0,0.0,92,0.00,,,0.00,,Wunderground v.1.13,2013-02-18 11:02:00,
2013-02-18 03:07:00,45.5,43.3,29.91,ESE,106,0.0,0.0,92,0.00,,,0.00,,Wunderground v.1.13,2013-02-18 11:07:00,
2013-02-18 03:15:00,45.7,42.9,29.90,WNW,292,1.0,5.0,90,0.00,,,-99.99,0,WeatherLink 5.7,2013-02-18 11:15:00,
2013-02-18 03:17:00,45.5,43.3,29.90,East,94,0.0,0.0,92,0.00,,,0.00,,Wunderground v.1.13,2013-02-18 11:17:00,
2013-02-18 03:22:00,45.5,43.3,29.90,East,94,0.0,0.0,92,0.00,,,0.00,,Wunderground v.1.13,2013-02-18 11:22:00,
2013-02-18 03:30:00,45.8,42.7,29.90,NW,315,1.0,4.0,89,0.00,,,-99.99,0,WeatherLink 5.7,2013-02-18 11:30:00,
2013-02-18 03:32:00,45.5,43.0,29.90,East,94,0.0,0.0,91,0.00,,,0.00,,Wunderground v.1.13,2013-02-18 11:32:00,
2013-02-18 03:37:00,45.5,43.0,29.90,East,94,0.0,0.0,91,0.00,,,0.00,,Wunderground v.1.13,2013-02-18 11:37:00,
2013-02-18 03:45:00,46.1,43.0,29.90,NE,45,0.0,5.0,89,0.00,,,-99.99,0,WeatherLink 5.7,2013-02-18 11:45:00,
2013-02-18 03:46:00,45.7,43.2,29.90,NNE,24,0.0,3.0,91,0.00,,,0.00,,Wunderground v.1.13,2013-02-18 11:46:00,
2013-02-18 03:57:00,45.7,43.2,29.90,North,5,0.0,1.0,91,0.00,,,0.00,,Wunderground v.1.13,2013-02-18 11:57:00,
2013-02-18 04:00:00,46.2,42.8,29.90,NE,45,0.0,3.0,88,0.00,,,-99.99,0,WeatherLink 5.7,2013-02-18 12:00:00,
2013-02-18 04:02:00,45.7,43.2,29.89,WNW,287,1.0,1.0,91,0.00,,,0.00,,Wunderground v.1.13,2013-02-18 12:02:00,
2013-02-18 04:11:00,45.7,42.9,29.89,WNW,294,0.0,0.0,90,0.00,,,0.00,,Wunderground v.1.13,2013-02-18 12:11:00,
2013-02-18 04:15:00,46.5,43.1,29.90,NW,315,0.0,2.0,88,0.00,,,-99.99,0,WeatherLink 5.7,2013-02-18 12:15:00,
2013-02-18 04:17:00,45.7,42.9,29.90,North,355,1.0,1.0,90,0.00,,,0.00,,Wunderground v.1.13,2013-02-18 12:17:00,
2013-02-18 04:22:00,45.7,42.6,29.90,NW,320,1.0,2.0,89,0.00,,,0.00,,Wunderground v.1.13,2013-02-18 12:22:00,
2013-02-18 04:30:00,46.8,42.8,29.91,ENE,67,0.0,3.0,86,0.00,,,-99.99,0,WeatherLink 5.7,2013-02-18 12:30:00,
2013-02-18 04:32:00,45.8,42.7,29.90,NW,311,1.0,2.0,89,0.00,,,0.00,,Wunderground v.1.13,2013-02-18 12:32:00,
2013-02-18 04:42:00,46.1,43.0,29.90,NE,35,0.0,1.0,89,0.00,,,0.00,,Wunderground v.1.13,2013-02-18 12:42:00,
2013-02-18 04:45:00,46.8,42.2,29.90,East,90,0.0,4.0,84,0.00,,,-99.99,0,WeatherLink 5.7,2013-02-18 12:45:00,
2013-02-18 04:52:00,46.2,42.8,29.90,NE,50,1.0,1.0,88,0.00,,,0.00,,Wunderground v.1.13,2013-02-18 12:52:00,
2013-02-18 04:57:00,46.2,42.8,29.90,NW,311,1.0,1.0,88,0.00,,,0.00,,Wunderground v.1.13,2013-02-18 12:57:00,
2013-02-18 05:00:00,46.7,41.8,29.91,NNE,22,0.0,7.0,83,0.00,,,-99.99,0,WeatherLink 5.7,2013-02-18 13:00:00,
2013-02-18 05:07:00,46.4,42.7,29.90,NW,311,0.0,0.0,87,0.00,,,0.00,,Wunderground v.1.13,2013-02-18 13:07:00,
2013-02-18 05:12:00,46.4,42.7,29.90,NW,320,0.0,0.0,87,0.00,,,0.00,,Wunderground v.1.13,2013-02-18 13:12:00,
2013-02-18 05:15:00,46.7,42.1,29.91,WNW,292,0.0,2.0,84,0.00,,,-99.99,0,WeatherLink 5.7,2013-02-18 13:15:00,
2013-02-18 05:22:00,46.7,43.0,29.90,ENE,59,1.0,1.0,87,0.00,,,0.00,,Wunderground v.1.13,2013-02-18 13:22:00,
2013-02-18 05:31:00,46.8,42.8,29.91,NE,38,0.0,0.0,86,0.00,,,0.00,,Wunderground v.1.13,2013-02-18 13:31:00,
2013-02-18 05:37:00,46.8,42.5,29.91,East,92,1.0,1.0,85,0.00,,,0.00,,Wunderground v.1.13,2013-02-18 13:37:00,
2013-02-18 05:45:00,46.5,41.3,29.92,East,90,0.0,2.0,82,0.00,,,-99.99,0,WeatherLink 5.7,2013-02-18 13:45:00,
2013-02-18 05:46:00,46.7,42.1,29.90,East,92,0.0,0.0,84,0.00,,,0.00,,Wunderground v.1.13,2013-02-18 13:46:00,
2013-02-18 05:52:00,46.7,42.1,29.90,NNE,18,0.0,0.0,84,0.00,,,0.00,,Wunderground v.1.13,2013-02-18 13:52:00,
2013-02-18 06:00:00,46.5,41.3,29.92,ENE,67,0.0,2.0,82,0.00,,,-99.99,0,WeatherLink 5.7,2013-02-18 14:00:00,
2013-02-18 06:02:00,46.7,41.8,29.91,WNW,301,0.0,1.0,83,0.00,,,0.00,,Wunderground v.1.13,2013-02-18 14:02:00,
2013-02-18 06:07:00,46.7,41.8,29.91,WNW,302,0.0,1.0,83,0.00,,,0.00,,Wunderground v.1.13,2013-02-18 14:07:00,
2013-02-18 06:15:00,46.5,41.0,29.91,ENE,67,0.0,2.0,81,0.00,,,-99.99,10,WeatherLink 5.7,2013-02-18 14:15:00,
2013-02-18 06:17:00,46.7,41.8,29.91,NE,41,0.0,1.0,83,0.00,,,0.00,,Wunderground v.1.13,2013-02-18 14:17:00,
2013-02-18 06:27:00,46.7,41.8,29.91,East,80,0.0,0.0,83,0.00,,,0.00,,Wunderground v.1.13,2013-02-18 14:27:00,
2013-02-18 06:30:00,46.8,41.0,29.92,ENE,67,0.0,2.0,80,0.00,,,-99.99,19,WeatherLink 5.7,2013-02-18 14:30:00,
2013-02-18 06:37:00,46.5,41.3,29.91,East,80,0.0,0.0,82,0.00,,,0.00,,Wunderground v.1.13,2013-02-18 14:37:00,
2013-02-18 06:42:00,46.5,41.3,29.91,East,81,0.0,1.0,82,0.00,,,0.00,,Wunderground v.1.13,2013-02-18 14:42:00,
2013-02-18 06:45:00,47.1,40.9,29.93,NE,45,0.0,3.0,79,0.00,,,-99.99,33,WeatherLink 5.7,2013-02-18 14:45:00,
2013-02-18 06:52:00,46.7,41.5,29.91,ENE,76,0.0,0.0,82,0.00,,,0.00,,Wunderground v.1.13,2013-02-18 14:52:00,
2013-02-18 07:00:00,47.6,41.1,29.93,NE,45,0.0,3.0,78,0.00,,,-99.99,62,WeatherLink 5.7,2013-02-18 15:00:00,
2013-02-18 07:01:00,46.5,41.0,29.92,ENE,76,0.0,0.0,81,0.00,,,0.00,,Wunderground v.1.13,2013-02-18 15:01:00,
2013-02-18 07:07:00,46.5,41.0,29.92,ENE,76,0.0,1.0,81,0.00,,,0.00,,Wunderground v.1.13,2013-02-18 15:07:00,
2013-02-18 07:12:00,46.5,41.0,29.92,ENE,76,0.0,0.0,81,0.00,,,0.00,,Wunderground v.1.13,2013-02-18 15:12:00,
2013-02-18 07:15:00,48.0,40.8,29.93,ENE,67,1.0,5.0,76,0.00,,,-99.99,82,WeatherLink 5.7,2013-02-18 15:15:00,
2013-02-18 07:21:00,46.7,41.2,29.91,ENE,76,0.0,0.0,81,0.00,,,0.00,,Wunderground v.1.13,2013-02-18 15:21:00,
2013-02-18 07:27:00,46.8,41.0,29.91,ENE,76,0.0,0.0,80,0.00,,,0.00,,Wunderground v.1.13,2013-02-18 15:27:00,
2013-02-18 07:30:00,48.0,40.5,29.94,ENE,67,1.0,4.0,75,0.00,,,-99.99,64,WeatherLink 5.7,2013-02-18 15:30:00,
2013-02-18 07:36:00,47.0,41.1,29.92,NE,49,0.0,2.0,80,0.00,,,0.00,,Wunderground v.1.13,2013-02-18 15:36:00,
2013-02-18 07:41:00,47.1,40.9,29.92,NE,49,0.0,0.0,79,0.00,,,0.00,,Wunderground v.1.13,2013-02-18 15:41:00,
2013-02-18 07:45:00,48.3,40.4,29.95,East,90,1.0,3.0,74,0.00,,,-99.99,91,WeatherLink 5.7,2013-02-18 15:45:00,
2013-02-18 07:47:00,47.1,40.9,29.93,NE,49,0.0,0.0,79,0.00,,,0.00,,Wunderground v.1.13,2013-02-18 15:47:00,
2013-02-18 07:52:00,47.3,41.1,29.93,NE,49,0.0,0.0,79,0.00,,,0.00,,Wunderground v.1.13,2013-02-18 15:52:00,
2013-02-18 08:00:00,48.5,40.2,29.95,East,90,1.0,3.0,73,0.00,,,-99.99,95,WeatherLink 5.7,2013-02-18 16:00:00,
2013-02-18 08:07:00,47.6,41.1,29.93,NE,45,0.0,3.0,78,0.00,,,0.00,,Wunderground v.1.13,2013-02-18 16:07:00,
2013-02-18 08:15:00,48.9,40.3,29.95,East,90,1.0,9.0,72,0.00,,,-99.99,99,WeatherLink 5.7,2013-02-18 16:15:00,
2013-02-18 08:16:00,48.0,40.8,29.93,NNW,346,1.0,1.0,76,0.00,,,0.00,,Wunderground v.1.13,2013-02-18 16:16:00,
2013-02-18 08:22:00,48.0,40.8,29.93,North,355,1.0,1.0,76,0.00,,,0.00,,Wunderground v.1.13,2013-02-18 16:22:00,
2013-02-18 08:30:00,49.6,40.6,29.95,NE,45,1.0,6.0,71,0.00,,,-99.99,126,WeatherLink 5.7,2013-02-18 16:30:00,
2013-02-18 08:32:00,48.0,40.5,29.94,NE,50,1.0,1.0,75,0.00,,,0.00,,Wunderground v.1.13,2013-02-18 16:32:00,
2013-02-18 08:37:00,48.2,40.6,29.94,East,82,1.0,1.0,75,0.00,,,0.00,,Wunderground v.1.13,2013-02-18 16:37:00,
2013-02-18 08:45:00,50.2,41.2,29.94,East,90,0.0,3.0,71,0.00,,,-99.99,127,WeatherLink 5.7,2013-02-18 16:45:00,
2013-02-18 08:47:00,48.3,40.4,29.95,ENE,66,1.0,2.0,74,0.00,,,0.00,,Wunderground v.1.13,2013-02-18 16:47:00,
2013-02-18 08:57:00,48.5,40.2,29.95,East,100,1.0,1.0,73,0.00,,,0.00,,Wunderground v.1.13,2013-02-18 16:57:00,
2013-02-18 09:00:00,50.2,40.8,29.95,ENE,67,1.0,4.0,70,0.00,,,-99.99,162,WeatherLink 5.7,2013-02-18 17:00:00,
2013-02-18 09:06:00,48.6,40.3,29.95,East,94,1.0,1.0,73,0.00,,,0.00,,Wunderground v.1.13,2013-02-18 17:06:00,
2013-02-18 09:12:00,48.9,40.6,29.95,East,94,1.0,1.0,73,0.00,,,0.00,,Wunderground v.1.13,2013-02-18 17:12:00,
2013-02-18 09:15:00,50.1,39.9,29.95,East,90,1.0,5.0,68,0.00,,,-99.99,186,WeatherLink 5.7,2013-02-18 17:15:00,
2013-02-18 09:22:00,49.4,40.7,29.95,NE,38,1.0,1.0,72,0.00,,,0.00,,Wunderground v.1.13,2013-02-18 17:22:00,
2013-02-18 09:27:00,49.6,40.6,29.95,NE,38,0.0,0.0,71,0.00,,,0.00,,Wunderground v.1.13,2013-02-18 17:27:00,
2013-02-18 09:30:00,49.8,40.0,29.95,East,90,1.0,4.0,69,0.00,,,-99.99,159,WeatherLink 5.7,2013-02-18 17:30:00,
2013-02-18 09:32:00,49.6,40.9,29.95,NNE,28,1.0,2.0,72,0.00,,,0.00,,Wunderground v.1.13,2013-02-18 17:32:00,
2013-02-18 09:42:00,50.1,41.1,29.95,East,87,1.0,1.0,71,0.00,,,0.00,,Wunderground v.1.13,2013-02-18 17:42:00,
2013-02-18 09:45:00,49.9,39.8,29.95,ESE,112,1.0,6.0,68,0.00,,,-99.99,168,WeatherLink 5.7,2013-02-18 17:45:00,
2013-02-18 09:51:00,50.1,40.7,29.95,NE,55,1.0,1.0,70,0.00,,,0.00,,Wunderground v.1.13,2013-02-18 17:51:00,
2013-02-18 09:57:00,50.1,40.7,29.95,ENE,68,1.0,1.0,70,0.00,,,0.00,,Wunderground v.1.13,2013-02-18 17:57:00,
2013-02-18 10:00:00,50.2,39.7,29.95,East,90,1.0,5.0,67,0.00,,,-99.99,165,WeatherLink 5.7,2013-02-18 18:00:00,
2013-02-18 10:06:00,50.2,40.4,29.95,ESE,113,1.0,1.0,69,0.00,,,0.00,,Wunderground v.1.13,2013-02-18 18:06:00,
2013-02-18 10:15:00,50.4,40.2,29.95,East,90,1.0,4.0,68,0.00,,,-99.99,187,WeatherLink 5.7,2013-02-18 18:15:00,
2013-02-18 10:17:00,50.1,39.9,29.95,East,96,1.0,1.0,68,0.00,,,0.00,,Wunderground v.1.13,2013-02-18 18:17:00,
2013-02-18 10:27:00,49.8,40.0,29.95,East,90,1.0,1.0,69,0.00,,,0.00,,Wunderground v.1.13,2013-02-18 18:27:00,
2013-02-18 10:30:00,51.3,40.3,29.94,NNW,337,1.0,9.0,66,0.00,,,-99.99,224,WeatherLink 5.7,2013-02-18 18:30:00,
2013-02-18 10:36:00,49.9,40.1,29.95,WNW,295,1.0,2.0,69,0.00,,,0.00,,Wunderground v.1.13,2013-02-18 18:36:00,
2013-02-18 10:42:00,49.8,39.3,29.95,ESE,110,2.0,2.0,67,0.00,,,0.00,,Wunderground v.1.13,2013-02-18 18:42:00,
2013-02-18 10:45:00,51.3,39.9,29.94,East,90,2.0,13.0,65,0.00,,,-99.99,201,WeatherLink 5.7,2013-02-18 18:45:00,
2013-02-18 10:52:00,50.1,39.2,29.95,East,88,1.0,1.0,66,0.00,,,0.00,,Wunderground v.1.13,2013-02-18 18:52:00,
2013-02-18 11:00:00,51.3,39.5,29.93,West,270,1.0,6.0,64,0.00,,,-99.99,186,WeatherLink 5.7,2013-02-18 19:00:00,
2013-02-18 11:02:00,50.2,39.7,29.95,East,101,1.0,3.0,67,0.00,,,0.00,,Wunderground v.1.13,2013-02-18 19:02:00,
2013-02-18 11:07:00,50.2,39.7,29.95,East,89,1.0,2.0,67,0.00,,,0.00,,Wunderground v.1.13,2013-02-18 19:07:00,
2013-02-18 11:15:00,50.8,39.5,29.93,West,270,1.0,5.0,65,0.00,,,-99.99,155,WeatherLink 5.7,2013-02-18 19:15:00,
2013-02-18 11:17:00,50.5,39.9,29.95,WNW,300,1.0,4.0,67,0.00,,,0.00,,Wunderground v.1.13,2013-02-18 19:17:00,
2013-02-18 11:26:00,51.0,40.4,29.95,NW,314,1.0,1.0,67,0.00,,,0.00,,Wunderground v.1.13,2013-02-18 19:26:00,
2013-02-18 11:30:00,50.7,39.0,29.92,NE,45,1.0,5.0,64,0.00,,,-99.99,148,WeatherLink 5.7,2013-02-18 19:30:00,
2013-02-18 11:32:00,51.3,39.9,29.95,East,86,1.0,1.0,65,0.00,,,0.00,,Wunderground v.1.13,2013-02-18 19:32:00,
2013-02-18 11:42:00,51.4,39.6,29.95,East,93,1.0,3.0,64,0.00,,,0.00,,Wunderground v.1.13,2013-02-18 19:42:00,
2013-02-18 11:45:00,50.7,38.6,29.92,East,90,1.0,9.0,63,0.00,,,-99.99,190,WeatherLink 5.7,2013-02-18 19:45:00,
2013-02-18 11:47:00,51.3,39.9,29.94,NW,313,2.0,2.0,65,0.00,,,0.00,,Wunderground v.1.13,2013-02-18 19:47:00,
2013-02-18 11:57:00,51.3,39.9,29.94,West,263,1.0,1.0,65,0.00,,,0.00,,Wunderground v.1.13,2013-02-18 19:57:00,
2013-02-18 12:02:00,51.1,39.3,29.93,West,259,1.0,1.0,64,0.00,,,0.00,,Wunderground v.1.13,2013-02-18 20:02:00,
2013-02-18 12:07:00,51.3,39.9,29.93,North,360,1.0,2.0,65,0.00,,,0.00,,Wunderground v.1.13,2013-02-18 20:07:00,
2013-02-18 12:12:00,51.0,39.6,29.93,West,272,1.0,2.0,65,0.00,,,0.00,,Wunderground v.1.13,2013-02-18 20:12:00,
2013-02-18 12:15:00,50.8,38.7,29.90,NNW,337,1.0,8.0,63,0.00,,,-99.99,153,WeatherLink 5.7,2013-02-18 20:15:00,
2013-02-18 12:22:00,50.7,39.4,29.93,NNW,348,1.0,1.0,65,0.00,,,0.00,,Wunderground v.1.13,2013-02-18 20:22:00,
2013-02-18 12:30:00,50.8,39.8,29.89,West,270,1.0,10.0,66,0.00,,,-99.99,167,WeatherLink 5.7,2013-02-18 20:30:00,
2013-02-18 12:32:00,50.8,39.1,29.93,North,5,1.0,1.0,64,0.00,,,0.00,,Wunderground v.1.13,2013-02-18 20:32:00,
2013-02-18 12:42:00,50.7,39.0,29.93,East,90,1.0,2.0,64,0.00,,,0.00,,Wunderground v.1.13,2013-02-18 20:42:00,
2013-02-18 12:45:00,51.1,39.3,29.89,NW,315,2.0,10.0,64,0.00,,,-99.99,211,WeatherLink 5.7,2013-02-18 20:45:00,
2013-02-18 12:52:00,51.0,39.2,29.92,North,355,1.0,2.0,64,0.00,,,0.00,,Wunderground v.1.13,2013-02-18 20:52:00,
2013-02-18 13:00:00,51.7,39.1,29.89,NW,315,1.0,8.0,62,0.00,,,-99.99,208,WeatherLink 5.7,2013-02-18 21:00:00,
2013-02-18 13:02:00,51.1,39.3,29.91,East,87,2.0,2.0,64,0.00,,,0.00,,Wunderground v.1.13,2013-02-18 21:02:00,
2013-02-18 13:07:00,51.1,39.7,29.91,ESE,102,1.0,1.0,65,0.00,,,0.00,,Wunderground v.1.13,2013-02-18 21:07:00,
2013-02-18 13:12:00,51.0,39.6,29.91,NNW,347,1.0,7.0,65,0.00,,,0.00,,Wunderground v.1.13,2013-02-18 21:12:00,
2013-02-18 13:15:00,51.6,38.2,29.89,East,90,2.0,10.0,60,0.00,,,-99.99,198,WeatherLink 5.7,2013-02-18 21:15:00,
2013-02-18 13:22:00,50.7,39.4,29.90,WSW,257,2.0,2.0,65,0.00,,,0.00,,Wunderground v.1.13,2013-02-18 21:22:00,
2013-02-18 13:27:00,50.7,39.7,29.90,East,94,1.0,1.0,66,0.00,,,0.00,,Wunderground v.1.13,2013-02-18 21:27:00,
2013-02-18 13:30:00,51.3,38.3,29.89,East,90,2.0,7.0,61,0.00,,,-99.99,173,WeatherLink 5.7,2013-02-18 21:30:00,
2013-02-18 13:37:00,50.8,39.1,29.89,WNW,300,1.0,2.0,64,0.00,,,0.00,,Wunderground v.1.13,2013-02-18 21:37:00,
2013-02-18 13:45:00,51.0,37.6,29.88,East,90,1.0,7.0,60,0.00,,,-99.99,136,WeatherLink 5.7,2013-02-18 21:45:00,
2013-02-18 13:47:00,51.1,39.7,29.89,East,93,2.0,2.0,65,0.00,,,0.00,,Wunderground v.1.13,2013-02-18 21:47:00,
2013-02-18 13:57:00,51.6,39.0,29.89,WNW,302,2.0,2.0,62,0.00,,,0.00,,Wunderground v.1.13,2013-02-18 21:57:00,
2013-02-18 14:00:00,50.5,38.0,29.89,NNW,337,2.0,10.0,62,0.00,,,-99.99,109,WeatherLink 5.7,2013-02-18 22:00:00,
2013-02-18 14:02:00,51.7,39.1,29.89,East,91,2.0,2.0,62,0.00,,,0.00,,Wunderground v.1.13,2013-02-18 22:02:00,
2013-02-18 14:07:00,51.7,38.3,29.89,WNW,284,2.0,4.0,60,0.00,,,0.00,,Wunderground v.1.13,2013-02-18 22:07:00,
2013-02-18 14:12:00,51.7,38.7,29.89,West,270,2.0,3.0,61,0.00,,,0.00,,Wunderground v.1.13,2013-02-18 22:12:00,
2013-02-18 14:15:00,50.7,37.3,29.89,East,90,2.0,9.0,60,0.00,,,-99.99,89,WeatherLink 5.7,2013-02-18 22:15:00,
2013-02-18 14:17:00,51.6,37.7,29.89,NNW,327,2.0,2.0,59,0.00,,,0.00,,Wunderground v.1.13,2013-02-18 22:17:00,
2013-02-18 14:27:00,51.4,38.0,29.89,East,80,2.0,2.0,60,0.00,,,0.00,,Wunderground v.1.13,2013-02-18 22:27:00,
2013-02-18 14:30:00,50.5,36.7,29.89,WNW,292,1.0,7.0,59,0.00,,,-99.99,90,WeatherLink 5.7,2013-02-18 22:30:00,
2013-02-18 14:32:00,51.3,37.9,29.89,East,99,2.0,2.0,60,0.00,,,0.00,,Wunderground v.1.13,2013-02-18 22:32:00,
2013-02-18 14:37:00,51.1,38.1,29.89,East,95,1.0,1.0,61,0.00,,,0.00,,Wunderground v.1.13,2013-02-18 22:37:00,
2013-02-18 14:42:00,51.1,37.7,29.89,East,92,1.0,1.0,60,0.00,,,0.00,,Wunderground v.1.13,2013-02-18 22:42:00,
2013-02-18 14:45:00,50.1,37.2,29.89,WNW,292,3.0,13.0,61,0.00,,,-99.99,100,WeatherLink 5.7,2013-02-18 22:45:00,
2013-02-18 14:52:00,51.0,37.6,29.88,NW,322,2.0,2.0,60,0.00,,,0.00,,Wunderground v.1.13,2013-02-18 22:52:00,
2013-02-18 15:00:00,50.2,37.3,29.88,East,90,1.0,5.0,61,0.00,,,-99.99,121,WeatherLink 5.7,2013-02-18 23:00:00,
2013-02-18 15:01:00,50.4,37.9,29.89,East,81,3.0,3.0,62,0.00,,,0.00,,Wunderground v.1.13,2013-02-18 23:01:00,
2013-02-18 15:07:00,50.4,38.3,29.89,East,92,2.0,2.0,63,0.00,,,0.00,,Wunderground v.1.13,2013-02-18 23:07:00,
2013-02-18 15:15:00,50.8,37.4,29.88,ENE,67,1.0,6.0,60,0.00,,,-99.99,133,WeatherLink 5.7,2013-02-18 23:15:00,
2013-02-18 15:17:00,50.7,37.7,29.89,ESE,115,2.0,2.0,61,0.00,,,0.00,,Wunderground v.1.13,2013-02-18 23:17:00,
2013-02-18 15:26:00,50.7,37.3,29.89,North,350,1.0,2.0,60,0.00,,,0.00,,Wunderground v.1.13,2013-02-18 23:26:00,
2013-02-18 15:32:00,50.5,36.7,29.89,NW,325,2.0,2.0,59,0.00,,,0.00,,Wunderground v.1.13,2013-02-18 23:32:00,
2013-02-18 15:42:00,50.2,37.3,29.89,East,100,2.0,2.0,61,0.00,,,0.00,,Wunderground v.1.13,2013-02-18 23:42:00,
2013-02-18 15:45:00,49.5,37.8,29.89,NW,315,2.0,11.0,64,0.00,,,-99.99,57,WeatherLink 5.7,2013-02-18 23:45:00,
2013-02-18 15:52:00,50.1,37.6,29.89,SSE,151,2.0,2.0,62,0.00,,,0.00,,Wunderground v.1.13,2013-02-18 23:52:00,
2013-02-18 16:00:00,49.1,37.8,29.89,East,90,2.0,15.0,65,0.00,,,-99.99,30,WeatherLink 5.7,2013-02-19 00:00:00,
2013-02-18 16:02:00,50.4,37.4,29.88,West,278,1.0,1.0,61,0.00,,,0.00,,Wunderground v.1.13,2013-02-19 00:02:00,
2013-02-18 16:07:00,50.5,37.1,29.88,ENE,60,1.0,1.0,60,0.00,,,0.00,,Wunderground v.1.13,2013-02-19 00:07:00,
2013-02-18 16:15:00,48.8,37.6,29.89,East,90,1.0,11.0,65,0.00,,,-99.99,26,WeatherLink 5.7,2013-02-19 00:15:00,
2013-02-18 16:17:00,50.8,37.4,29.88,East,88,2.0,2.0,60,0.00,,,0.00,,Wunderground v.1.13,2013-02-19 00:17:00,
2013-02-18 16:22:00,50.8,37.4,29.88,East,97,2.0,2.0,60,0.00,,,0.00,,Wunderground v.1.13,2013-02-19 00:22:00,
2013-02-18 16:27:00,50.5,37.5,29.88,NW,317,2.0,2.0,61,0.00,,,0.00,,Wunderground v.1.13,2013-02-19 00:27:00,
2013-02-18 16:30:00,48.6,37.7,29.88,WNW,292,1.0,6.0,66,0.00,,,-99.99,16,WeatherLink 5.7,2013-02-19 00:30:00,
2013-02-18 16:37:00,49.8,37.7,29.89,NW,319,3.0,10.0,63,0.00,,,0.00,,Wunderground v.1.13,2013-02-19 00:37:00,
2013-02-18 16:42:00,49.6,37.9,29.89,NW,306,2.0,2.0,64,0.00,,,0.00,,Wunderground v.1.13,2013-02-19 00:42:00,
2013-02-18 16:45:00,48.6,38.5,29.89,NW,315,2.0,8.0,68,0.00,,,-99.99,4,WeatherLink 5.7,2013-02-19 00:45:00,
2013-02-18 16:52:00,49.2,37.5,29.89,ENE,77,2.0,2.0,64,0.00,,,0.00,,Wunderground v.1.13,2013-02-19 00:52:00,
2013-02-18 16:57:00,49.2,37.9,29.89,NW,319,2.0,2.0,65,0.00,,,0.00,,Wunderground v.1.13,2013-02-19 00:57:00,
2013-02-18 17:00:00,48.2,38.1,29.88,WNW,292,2.0,10.0,68,0.00,,,-99.99,0,WeatherLink 5.7,2013-02-19 01:00:00,
2013-02-18 17:02:00,49.1,37.8,29.89,East,90,2.0,2.0,65,0.00,,,0.00,,Wunderground v.1.13,2013-02-19 01:02:00,
2013-02-18 17:12:00,48.8,37.6,29.89,NE,36,2.0,2.0,65,0.00,,,0.00,,Wunderground v.1.13,2013-02-19 01:12:00,
2013-02-18 17:15:00,47.9,37.1,29.89,NW,315,1.0,5.0,66,0.00,,,-99.99,0,WeatherLink 5.7,2013-02-19 01:15:00,
2013-02-18 17:22:00,48.8,37.6,29.89,ENE,59,1.0,1.0,65,0.00,,,0.00,,Wunderground v.1.13,2013-02-19 01:22:00,
2013-02-18 17:27:00,48.6,37.7,29.89,North,355,1.0,3.0,66,0.00,,,0.00,,Wunderground v.1.13,2013-02-19 01:27:00,
2013-02-18 17:30:00,47.7,36.9,29.88,East,90,1.0,9.0,66,0.00,,,-99.99,0,WeatherLink 5.7,2013-02-19 01:30:00,
2013-02-18 17:37:00,48.6,38.1,29.88,NW,316,2.0,3.0,67,0.00,,,0.00,,Wunderground v.1.13,2013-02-19 01:37:00,
2013-02-18 17:42:00,48.6,38.5,29.88,ENE,78,2.0,2.0,68,0.00,,,0.00,,Wunderground v.1.13,2013-02-19 01:42:00,
2013-02-18 17:45:00,47.6,37.2,29.88,WNW,292,2.0,7.0,67,0.00,,,-99.99,0,WeatherLink 5.7,2013-02-19 01:45:00,
2013-02-18 17:52:00,48.5,38.8,29.89,NW,323,2.0,2.0,69,0.00,,,0.00,,Wunderground v.1.13,2013-02-19 01:52:00,
2013-02-18 17:57:00,48.3,38.2,29.89,WNW,296,2.0,2.0,68,0.00,,,0.00,,Wunderground v.1.13,2013-02-19 01:57:00,
2013-02-18 18:00:00,47.6,37.6,29.88,ESE,112,1.0,7.0,68,0.00,,,-99.99,0,WeatherLink 5.7,2013-02-19 02:00:00,
2013-02-18 18:07:00,48.0,37.6,29.88,East,95,1.0,1.0,67,0.00,,,0.00,,Wunderground v.1.13,2013-02-19 02:07:00,
2013-02-18 18:15:00,47.6,37.9,29.88,ESE,112,1.0,3.0,69,0.00,,,-99.99,0,WeatherLink 5.7,2013-02-19 02:15:00,
2013-02-18 18:17:00,47.9,37.1,29.89,East,101,1.0,1.0,66,0.00,,,0.00,,Wunderground v.1.13,2013-02-19 02:17:00,
2013-02-18 18:22:00,47.7,36.9,29.89,WNW,296,1.0,7.0,66,0.00,,,0.00,,Wunderground v.1.13,2013-02-19 02:22:00,
2013-02-18 18:30:00,47.6,37.9,29.88,ENE,67,0.0,4.0,69,0.00,,,-99.99,0,WeatherLink 5.7,2013-02-19 02:30:00,
2013-02-18 18:32:00,47.7,36.9,29.88,NW,317,2.0,5.0,66,0.00,,,0.00,,Wunderground v.1.13,2013-02-19 02:32:00,
2013-02-18 18:42:00,47.6,36.8,29.88,WNW,288,2.0,2.0,66,0.00,,,0.00,,Wunderground v.1.13,2013-02-19 02:42:00,
2013-02-18 18:45:00,47.6,38.3,29.88,NNW,337,1.0,7.0,70,0.00,,,-99.99,0,WeatherLink 5.7,2013-02-19 02:45:00,
2013-02-18 18:47:00,47.6,37.2,29.88,WNW,300,2.0,2.0,67,0.00,,,0.00,,Wunderground v.1.13,2013-02-19 02:47:00,
2013-02-18 18:57:00,47.6,37.6,29.88,ESE,109,1.0,1.0,68,0.00,,,0.00,,Wunderground v.1.13,2013-02-19 02:57:00,
2013-02-18 19:00:00,47.7,38.4,29.88,NNW,337,1.0,6.0,70,0.00,,,-99.99,0,WeatherLink 5.7,2013-02-19 03:00:00,
2013-02-18 19:06:00,47.6,37.9,29.88,SSW,202,1.0,1.0,69,0.00,,,0.00,,Wunderground v.1.13,2013-02-19 03:06:00,
2013-02-18 19:12:00,47.4,37.7,29.88,South,184,1.0,1.0,69,0.00,,,0.00,,Wunderground v.1.13,2013-02-19 03:12:00,
2013-02-18 19:15:00,47.9,38.9,29.88,NNW,337,1.0,6.0,71,0.00,,,-99.99,0,WeatherLink 5.7,2013-02-19 03:15:00,
2013-02-18 19:22:00,47.6,37.9,29.88,ENE,76,0.0,0.0,69,0.00,,,0.00,,Wunderground v.1.13,2013-02-19 03:22:00,
2013-02-18 19:30:00,47.9,38.9,29.88,ESE,112,1.0,9.0,71,0.00,,,-99.99,0,WeatherLink 5.7,2013-02-19 03:30:00,
2013-02-18 19:32:00,47.6,37.9,29.88,NNW,344,0.0,0.0,69,0.00,,,0.00,,Wunderground v.1.13,2013-02-19 03:32:00,
2013-02-18 19:41:00,47.6,38.3,29.88,WSW,255,1.0,1.0,70,0.00,,,0.00,,Wunderground v.1.13,2013-02-19 03:41:00,
2013-02-18 19:45:00,47.7,38.4,29.88,East,90,1.0,5.0,70,0.00,,,-99.99,0,WeatherLink 5.7,2013-02-19 03:45:00,
2013-02-18 19:47:00,47.7,38.0,29.88,NNW,336,1.0,1.0,69,0.00,,,0.00,,Wunderground v.1.13,2013-02-19 03:47:00,
2013-02-18 19:52:00,47.7,38.0,29.88,WNW,288,1.0,2.0,69,0.00,,,0.00,,Wunderground v.1.13,2013-02-19 03:52:00,
2013-02-18 20:00:00,47.4,37.7,29.89,East,90,1.0,7.0,69,0.00,,,-99.99,0,WeatherLink 5.7,2013-02-19 04:00:00,
2013-02-18 20:02:00,47.7,38.4,29.88,ENE,67,1.0,1.0,70,0.00,,,0.00,,Wunderground v.1.13,2013-02-19 04:02:00,
2013-02-18 20:12:00,47.9,38.6,29.88,East,90,1.0,1.0,70,0.00,,,0.00,,Wunderground v.1.13,2013-02-19 04:12:00,
2013-02-18 20:15:00,47.3,37.6,29.89,ENE,67,1.0,6.0,69,0.00,,,-99.99,0,WeatherLink 5.7,2013-02-19 04:15:00,
2013-02-18 20:22:00,47.9,38.9,29.88,NE,55,1.0,1.0,71,0.00,,,0.00,,Wunderground v.1.13,2013-02-19 04:22:00,
2013-02-18 20:27:00,47.9,38.9,29.88,North,355,1.0,1.0,71,0.00,,,0.00,,Wunderground v.1.13,2013-02-19 04:27:00,
2013-02-18 20:30:00,47.4,37.4,29.90,ENE,67,1.0,6.0,68,0.00,,,-99.99,0,WeatherLink 5.7,2013-02-19 04:30:00,
2013-02-18 20:36:00,47.7,38.4,29.88,East,93,1.0,2.0,70,0.00,,,0.00,,Wunderground v.1.13,2013-02-19 04:36:00,
2013-02-18 20:42:00,47.7,38.4,29.88,NNE,28,1.0,1.0,70,0.00,,,0.00,,Wunderground v.1.13,2013-02-19 04:42:00,
2013-02-18 20:45:00,47.4,37.0,29.90,East,90,1.0,5.0,67,0.00,,,-99.99,0,WeatherLink 5.7,2013-02-19 04:45:00,
2013-02-18 20:52:00,47.6,38.3,29.88,East,92,1.0,1.0,70,0.00,,,0.00,,Wunderground v.1.13,2013-02-19 04:52:00,
2013-02-18 20:57:00,47.4,37.7,29.88,WNW,303,2.0,5.0,69,0.00,,,0.00,,Wunderground v.1.13,2013-02-19 04:57:00,
2013-02-18 21:00:00,47.4,36.6,29.90,East,90,1.0,4.0,66,0.00,,,-99.99,0,WeatherLink 5.7,2013-02-19 05:00:00,
2013-02-18 21:02:00,47.4,37.7,29.89,NNW,341,1.0,1.0,69,0.00,,,0.00,,Wunderground v.1.13,2013-02-19 05:02:00,
2013-02-18 21:07:00,47.4,37.7,29.89,ENE,60,1.0,1.0,69,0.00,,,0.00,,Wunderground v.1.13,2013-02-19 05:07:00,
2013-02-18 21:15:00,47.3,36.1,29.90,WNW,292,1.0,7.0,65,0.00,,,-99.99,0,WeatherLink 5.7,2013-02-19 05:15:00,
2013-02-18 21:17:00,47.3,37.6,29.89,WNW,301,1.0,2.0,69,0.00,,,0.00,,Wunderground v.1.13,2013-02-19 05:17:00,
2013-02-18 21:22:00,47.3,37.6,29.89,ENE,72,1.0,1.0,69,0.00,,,0.00,,Wunderground v.1.13,2013-02-19 05:22:00,
2013-02-18 21:27:00,47.3,37.3,29.89,NW,310,1.0,1.0,68,0.00,,,0.00,,Wunderground v.1.13,2013-02-19 05:27:00,
2013-02-18 21:30:00,47.1,35.9,29.89,WNW,292,1.0,5.0,65,0.00,,,-99.99,0,WeatherLink 5.7,2013-02-19 05:30:00,
2013-02-18 21:37:00,47.4,37.4,29.90,NNW,348,0.0,0.0,68,0.00,,,0.00,,Wunderground v.1.13,2013-02-19 05:37:00,
2013-02-18 21:42:00,47.4,37.4,29.90,NW,326,1.0,2.0,68,0.00,,,0.00,,Wunderground v.1.13,2013-02-19 05:42:00,
2013-02-18 21:45:00,47.0,35.4,29.89,ENE,67,1.0,4.0,64,0.00,,,-99.99,0,WeatherLink 5.7,2013-02-19 05:45:00,
2013-02-18 21:47:00,47.4,37.0,29.90,SSW,192,1.0,1.0,67,0.00,,,0.00,,Wunderground v.1.13,2013-02-19 05:47:00,
2013-02-18 21:56:00,47.4,37.0,29.90,NE,43,1.0,1.0,67,0.00,,,0.00,,Wunderground v.1.13,2013-02-19 05:56:00,
2013-02-18 22:00:00,46.5,35.0,29.89,East,90,1.0,3.0,64,0.00,,,-99.99,0,WeatherLink 5.7,2013-02-19 06:00:00,
2013-02-18 22:07:00,47.3,36.5,29.90,NNE,13,1.0,1.0,66,0.00,,,0.00,,Wunderground v.1.13,2013-02-19 06:07:00,
2013-02-18 22:12:00,47.3,36.1,29.90,East,90,1.0,1.0,65,0.00,,,0.00,,Wunderground v.1.13,2013-02-19 06:12:00,
2013-02-18 22:15:00,46.0,34.9,29.88,NE,45,1.0,5.0,65,0.00,,,-99.99,0,WeatherLink 5.7,2013-02-19 06:15:00,
2013-02-18 22:17:00,47.3,36.1,29.90,NW,309,1.0,2.0,65,0.00,,,0.00,,Wunderground v.1.13,2013-02-19 06:17:00,
2013-02-18 22:26:00,47.3,36.1,29.90,ENE,61,1.0,2.0,65,0.00,,,0.00,,Wunderground v.1.13,2013-02-19 06:26:00,
2013-02-18 22:30:00,45.7,35.0,29.88,NE,45,1.0,4.0,66,0.00,,,-99.99,0,WeatherLink 5.7,2013-02-19 06:30:00,
2013-02-18 22:31:00,47.1,35.9,29.89,ENE,69,0.0,0.0,65,0.00,,,0.00,,Wunderground v.1.13,2013-02-19 06:31:00,
2013-02-18 22:37:00,47.1,35.5,29.89,ENE,71,1.0,1.0,64,0.00,,,0.00,,Wunderground v.1.13,2013-02-19 06:37:00,
2013-02-18 22:45:00,45.2,34.9,29.88,NW,315,0.0,3.0,67,0.00,,,-99.99,0,WeatherLink 5.7,2013-02-19 06:45:00,
2013-02-18 22:47:00,47.0,35.4,29.89,ENE,59,1.0,1.0,64,0.00,,,0.00,,Wunderground v.1.13,2013-02-19 06:47:00,
2013-02-18 22:57:00,46.5,35.0,29.89,East,88,0.0,0.0,64,0.00,,,0.00,,Wunderground v.1.13,2013-02-19 06:57:00,
2013-02-18 23:00:00,45.2,34.9,29.88,ENE,67,1.0,5.0,67,0.00,,,-99.99,0,WeatherLink 5.7,2013-02-19 07:00:00,
2013-02-18 23:07:00,46.2,35.1,29.89,NE,50,1.0,1.0,65,0.00,,,0.00,,Wunderground v.1.13,2013-02-19 07:07:00,
2013-02-18 23:15:00,45.4,35.5,29.88,ENE,67,0.0,1.0,68,0.00,,,-99.99,0,WeatherLink 5.7,2013-02-19 07:15:00,
2013-02-18 23:16:00,46.0,34.9,29.88,North,351,1.0,1.0,65,0.00,,,0.00,,Wunderground v.1.13,2013-02-19 07:16:00,
2013-02-18 23:22:00,45.8,34.7,29.88,WNW,300,1.0,1.0,65,0.00,,,0.00,,Wunderground v.1.13,2013-02-19 07:22:00,
2013-02-18 23:32:00,45.7,35.0,29.88,NE,44,1.0,1.0,66,0.00,,,0.00,,Wunderground v.1.13,2013-02-19 07:32:00,
2013-02-18 23:42:00,45.2,34.9,29.88,NW,308,0.0,2.0,67,0.00,,,0.00,,Wunderground v.1.13,2013-02-19 07:42:00,
2013-02-18 23:45:00,46.0,35.3,29.88,NW,315,0.0,3.0,66,0.00,,,-99.99,0,WeatherLink 5.7,2013-02-19 07:45:00,
2013-02-18 23:52:00,45.2,35.3,29.88,NNE,19,1.0,1.0,68,0.00,,,0.00,,Wunderground v.1.13,2013-02-19 07:52:00,